Time;durP1;ratioP1;P1;durP2;ratioP2;P2;SDS_P1;SDS_P2;PMS_P1;PMS_P2;Temp;Humidity;BMP_temperature;BMP_pressure;BME280_temperature;BME280_humidity;BME280_pressure;Samples;Min_cycle;Max_cycle;Signal;HPM_P1;HPM_P2
2022/04/10 00:01:40;;;;;;;6.88;2.60;;;;;;;8.61;65.42;97878.75;4935670;29;20087;-73
2022/04/10 00:04:06;;;;;;;7.57;2.60;;;;;;;8.61;65.27;97875.19;4933982;29;20059;-73
2022/04/10 00:06:32;;;;;;;7.50;2.65;;;;;;;8.60;65.13;97874.41;4939932;29;20058;-74
2022/04/10 00:08:59;;;;;;;9.38;3.05;;;;;;;8.60;65.31;97868.97;4939457;29;20048;-74
2022/04/10 00:11:25;;;;;;;8.37;3.27;;;;;;;8.62;65.15;97860.47;4926920;29;20060;-73
2022/04/10 00:13:52;;;;;;;9.77;3.00;;;;;;;8.60;65.14;97860.78;4936120;29;20059;-73
2022/04/10 00:16:19;;;;;;;12.35;3.30;;;;;;;8.60;65.32;97860.78;4942728;29;20489;-74
2022/04/10 00:18:45;;;;;;;8.98;2.47;;;;;;;8.58;65.24;97864.94;4935824;29;20048;-73
2022/04/10 00:21:11;;;;;;;11.30;3.83;;;;;;;8.56;65.37;97859.78;4943007;28;20088;-74
2022/04/10 00:23:37;;;;;;;9.43;2.50;;;;;;;8.58;65.27;97860.28;4919156;29;20075;-73
2022/04/10 00:26:04;;;;;;;8.35;2.65;;;;;;;8.56;65.42;97859.78;4915475;29;20152;-73
2022/04/10 00:28:31;;;;;;;7.20;2.63;;;;;;;8.57;65.45;97852.44;4940210;29;20052;-73
2022/04/10 00:30:57;;;;;;;8.10;2.70;;;;;;;8.55;65.37;97841.81;4934796;29;20473;-73
2022/04/10 00:33:24;;;;;;;9.18;2.78;;;;;;;8.53;65.49;97846.78;4939462;29;20047;-73
2022/04/10 00:35:50;;;;;;;7.43;2.60;;;;;;;8.51;65.65;97846.28;4936908;29;20086;-73
2022/04/10 00:38:17;;;;;;;7.22;2.50;;;;;;;8.48;65.69;97836.00;4920519;29;20078;-73
2022/04/10 00:40:43;;;;;;;9.07;2.40;;;;;;;8.48;66.06;97833.25;4945671;28;20055;-73
2022/04/10 00:43:09;;;;;;;8.77;2.30;;;;;;;8.47;65.96;97837.88;4945469;29;20567;-73
2022/04/10 00:45:36;;;;;;;8.27;2.75;;;;;;;8.47;66.13;97832.44;4904127;29;20114;-74
2022/04/10 00:48:02;;;;;;;9.38;2.60;;;;;;;8.48;66.21;97836.00;4942231;29;20122;-74
2022/04/10 00:50:31;;;;;;;9.55;2.90;;;;;;;8.35;66.46;97810.41;4941462;29;20061;-74
2022/04/10 00:52:59;;;;;;;8.15;2.60;;;;;;;8.43;66.71;97825.19;4917331;29;20067;-74
2022/04/10 00:55:26;;;;;;;9.75;2.58;;;;;;;8.43;66.75;97825.19;4945761;29;20516;-74
2022/04/10 00:57:53;;;;;;;8.75;2.88;;;;;;;8.41;67.03;97816.53;4943283;29;20142;-73
2022/04/10 01:00:19;;;;;;;7.82;2.70;;;;;;;8.40;67.31;97823.91;4924564;29;20051;-73
2022/04/10 01:02:45;;;;;;;12.32;3.00;;;;;;;8.41;67.30;97822.78;4939219;29;20464;-74
2022/04/10 01:05:12;;;;;;;8.07;2.80;;;;;;;8.32;67.41;97814.56;4943591;29;20173;-74
2022/04/10 01:07:39;;;;;;;8.95;2.72;;;;;;;8.37;67.56;97824.53;4938465;29;20495;-74
2022/04/10 01:10:06;;;;;;;;;;;;;;;8.35;67.91;97816.66;4924440;29;20055;-74
2022/04/10 01:12:34;;;;;;;9.95;2.60;;;;;;;8.30;68.03;97822.25;4940415;29;19926;-75
2022/04/10 01:15:04;;;;;;;8.65;3.10;;;;;;;8.25;68.53;97813.38;4926619;29;20461;-74
2022/04/10 01:17:35;;;;;;;8.70;2.88;;;;;;;8.27;68.63;97814.66;4943121;29;20055;-74
2022/04/10 01:20:03;;;;;;;9.68;3.28;;;;;;;8.27;68.81;97822.03;4942463;29;20543;-74
2022/04/10 01:22:36;;;;;;;11.35;3.65;;;;;;;8.23;69.01;97822.66;4925122;29;20518;-74
2022/04/10 01:25:08;;;;;;;11.48;3.10;;;;;;;8.22;69.23;97829.22;4939926;29;20447;-73
2022/04/10 01:27:38;;;;;;;8.02;3.05;;;;;;;8.18;69.33;97828.19;4945721;29;20105;-73
2022/04/10 01:30:07;;;;;;;8.15;3.40;;;;;;;8.16;69.58;97824.19;4943063;29;20134;-73
2022/04/10 01:32:35;;;;;;;9.45;3.55;;;;;;;8.16;69.78;97825.00;4936617;29;20077;-73
2022/04/10 01:35:02;;;;;;;11.67;4.10;;;;;;;8.16;70.06;97824.19;4934522;29;20532;-74
2022/04/10 01:37:31;;;;;;;11.82;3.58;;;;;;;8.12;70.33;97818.56;4929297;29;20079;-74
2022/04/10 01:39:59;;;;;;;11.57;4.03;;;;;;;8.11;70.51;97822.41;4931739;29;20149;-74
2022/04/10 01:42:26;;;;;;;10.02;3.60;;;;;;;8.12;70.67;97810.38;4939437;29;20067;-74
2022/04/10 01:44:52;;;;;;;13.88;4.20;;;;;;;8.11;70.65;97811.50;4917917;29;20061;-74
2022/04/10 01:47:19;;;;;;;10.48;3.72;;;;;;;8.09;70.68;97809.06;4917003;29;20366;-74
2022/04/10 01:49:45;;;;;;;9.88;3.33;;;;;;;8.03;71.06;97804.06;4934731;29;20531;-74
2022/04/10 01:52:12;;;;;;;9.00;3.08;;;;;;;7.94;71.45;97796.63;4939621;29;20146;-73
2022/04/10 01:54:38;;;;;;;9.32;3.60;;;;;;;7.98;71.50;97805.00;4919713;29;20083;-74
2022/04/10 01:57:09;;;;;;;11.32;3.42;;;;;;;7.98;71.58;97788.66;4932471;29;20416;-74
2022/04/10 01:59:36;;;;;;;9.18;3.40;;;;;;;7.97;71.68;97789.78;4921404;29;20266;-73
2022/04/10 02:02:03;;;;;;;8.73;3.38;;;;;;;7.98;71.89;97785.94;4923910;29;20099;-73
2022/04/10 02:04:29;;;;;;;9.93;3.53;;;;;;;8.01;71.73;97793.50;4932870;29;20126;-74
2022/04/10 02:06:56;;;;;;;9.97;3.97;;;;;;;8.01;71.94;97779.06;4940254;29;20062;-72
2022/04/10 02:09:22;;;;;;;9.73;3.72;;;;;;;7.97;71.88;97781.63;4936479;29;20087;-73
2022/04/10 02:11:50;;;;;;;9.50;3.70;;;;;;;7.99;72.09;97784.84;4902944;29;20516;-73
2022/04/10 02:14:18;;;;;;;10.85;4.35;;;;;;;7.99;72.00;97773.13;4940452;29;20047;-72
2022/04/10 02:16:44;;;;;;;11.07;4.30;;;;;;;7.93;72.19;97781.41;4939426;28;20090;-72
2022/04/10 02:19:11;;;;;;;9.82;3.90;;;;;;;7.94;72.36;97782.22;4940306;29;20047;-72
2022/04/10 02:21:37;;;;;;;11.88;4.10;;;;;;;7.92;72.56;97785.25;4937851;29;20078;-73
2022/04/10 02:24:04;;;;;;;10.30;4.00;;;;;;;7.97;72.43;97780.81;4940274;28;20496;-73
2022/04/10 02:26:30;;;;;;;11.43;4.15;;;;;;;7.95;72.56;97773.75;4942178;29;20083;-72
2022/04/10 02:28:57;;;;;;;10.13;4.32;;;;;;;7.98;72.60;97775.06;4916143;29;20054;-73
2022/04/10 02:31:24;;;;;;;12.15;4.05;;;;;;;7.97;72.58;97781.63;4919705;29;20063;-73
2022/04/10 02:33:50;;;;;;;13.15;5.00;;;;;;;8.00;72.57;97777.47;4924759;29;20055;-68
2022/04/10 02:36:19;;;;;;;13.45;5.13;;;;;;;7.95;72.81;97773.75;4942618;29;20051;-69
2022/04/10 02:38:45;;;;;;;11.05;4.63;;;;;;;7.98;72.84;97777.78;4933044;29;20051;-68
2022/04/10 02:41:12;;;;;;;11.85;4.60;;;;;;;8.00;72.77;97769.28;4924121;29;20051;-69
2022/04/10 02:43:39;;;;;;;12.32;4.43;;;;;;;8.03;72.71;97774.13;4916130;29;20070;-68
2022/04/10 02:46:05;;;;;;;11.50;4.72;;;;;;;8.04;72.74;97775.72;4923198;29;20090;-68
2022/04/10 02:48:38;;;;;;;12.35;5.35;;;;;;;7.98;73.01;97775.06;4930177;29;20365;-68
2022/04/10 02:51:07;;;;;;;11.50;4.97;;;;;;;7.91;72.93;97755.63;4935948;29;20154;-68
2022/04/10 02:53:34;;;;;;;12.35;4.55;;;;;;;7.97;73.06;97773.44;4935514;29;20047;-68
2022/04/10 02:56:00;;;;;;;12.15;5.10;;;;;;;7.97;73.28;97784.34;4899967;29;20078;-68
2022/04/10 02:58:45;;;;;;;12.18;5.20;;;;;;;7.90;73.64;97787.47;4938216;29;20090;-70
2022/04/10 03:01:31;;;;;;;11.98;5.88;;;;;;;7.91;73.66;97780.09;4935285;29;20059;-68
2022/04/10 03:04:16;;;;;;;11.13;4.68;;;;;;;7.92;73.68;97779.81;4934340;29;20115;-69
2022/04/10 03:07:01;;;;;;;11.25;5.18;;;;;;;7.92;73.65;97787.97;4922656;29;20068;-70
2022/04/10 03:09:47;;;;;;;12.18;5.25;;;;;;;7.92;73.77;97782.53;4939689;29;20059;-68
2022/04/10 03:12:32;;;;;;;11.93;5.55;;;;;;;7.94;73.77;97790.38;4925371;29;20094;-69
2022/04/10 03:15:17;;;;;;;11.80;5.88;;;;;;;7.94;73.84;97791.19;4938801;29;20118;-69
2022/04/10 03:18:02;;;;;;;13.10;6.93;;;;;;;7.92;73.84;97789.88;4937161;29;20523;-69
2022/04/10 03:20:48;;;;;;;16.73;6.72;;;;;;;7.92;73.81;97795.31;4934998;29;20051;-68
2022/04/10 03:23:34;;;;;;;17.85;8.38;;;;;;;7.93;73.93;97799.66;4925968;29;20440;-69
2022/04/10 03:26:19;;;;;;;15.25;7.80;;;;;;;7.91;74.02;97791.81;4939036;28;20593;-69
2022/04/10 03:29:04;;;;;;;17.85;7.88;;;;;;;7.91;74.29;97793.72;4938711;29;20070;-69
2022/04/10 03:31:49;;;;;;;29.17;12.20;;;;;;;7.89;74.16;97779.59;4924104;29;20531;-68
2022/04/10 03:34:34;;;;;;;15.13;7.20;;;;;;;7.93;74.19;97786.84;4926472;29;20111;-67
2022/04/10 03:37:20;;;;;;;14.95;6.70;;;;;;;7.95;74.28;97790.06;4917256;29;20058;-68
2022/04/10 03:40:06;;;;;;;12.75;6.22;;;;;;;7.92;74.33;97781.72;4923504;29;20066;-68
2022/04/10 03:42:52;;;;;;;14.02;6.30;;;;;;;7.91;74.40;97785.53;4926981;29;20062;-69
2022/04/10 03:45:38;;;;;;;13.27;6.88;;;;;;;7.92;74.37;97787.16;4927813;29;20107;-69
2022/04/10 03:48:23;;;;;;;13.43;6.97;;;;;;;7.91;74.42;97783.66;4934975;29;20066;-69
2022/04/10 03:51:08;;;;;;;13.15;6.30;;;;;;;7.89;74.41;97779.59;4939072;29;20094;-69
2022/04/10 03:53:56;;;;;;;14.23;6.55;;;;;;;7.89;74.59;97780.44;4920808;29;20081;-69
2022/04/10 03:56:40;;;;;;;20.55;6.63;;;;;;;7.91;74.50;97789.09;4920555;29;20123;-69
2022/04/10 03:59:26;;;;;;;13.45;6.85;;;;;;;7.92;74.43;97796.13;4937883;29;20062;-69
2022/04/10 04:02:15;;;;;;;18.77;7.30;;;;;;;7.91;74.58;97796.44;4918759;29;20461;-69
2022/04/10 04:05:00;;;;;;;15.23;7.95;;;;;;;7.90;74.50;97800.25;4922098;29;20148;-67
2022/04/10 04:07:45;;;;;;;31.02;14.48;;;;;;;7.91;74.73;97807.31;4925391;29;20439;-68
2022/04/10 04:10:32;;;;;;;22.90;13.55;;;;;;;7.92;74.79;97803.47;4910716;29;20265;-69
2022/04/10 04:13:17;;;;;;;29.65;14.27;;;;;;;7.95;74.71;97802.88;4938735;29;20439;-69
2022/04/10 04:16:03;;;;;;;30.08;15.48;;;;;;;7.92;74.90;97808.94;4938127;29;20059;-68
2022/04/10 04:18:48;;;;;;;35.47;13.35;;;;;;;7.91;74.92;97815.47;4937473;29;20150;-68
2022/04/10 04:21:33;;;;;;;31.75;12.13;;;;;;;7.91;75.19;97807.31;4929824;29;20070;-69
2022/04/10 04:24:19;;;;;;;27.08;10.57;;;;;;;7.92;75.13;97814.38;4941279;29;20138;-68
2022/04/10 04:27:04;;;;;;;24.73;10.15;;;;;;;7.90;75.02;97824.75;4933375;29;20066;-70
2022/04/10 04:29:50;;;;;;;23.23;10.02;;;;;;;7.85;75.58;97822.16;4945141;29;20062;-68
2022/04/10 04:32:34;;;;;;;32.55;10.77;;;;;;;7.89;75.38;97836.75;4935280;29;20082;-69
2022/04/10 04:35:20;;;;;;;20.10;9.60;;;;;;;7.90;75.60;97830.19;4936414;29;20062;-69
2022/04/10 04:38:05;;;;;;;20.35;9.38;;;;;;;7.88;75.64;97840.59;4925172;29;20067;-69
2022/04/10 04:40:50;;;;;;;19.33;9.50;;;;;;;7.89;75.52;97831.31;4920329;29;20154;-68
2022/04/10 04:43:36;;;;;;;19.67;9.85;;;;;;;7.88;75.69;97835.97;4940065;29;20050;-69
2022/04/10 04:46:22;;;;;;;21.83;10.25;;;;;;;7.90;75.66;97835.63;4925063;29;20062;-69
2022/04/10 04:49:07;;;;;;;26.15;10.82;;;;;;;7.87;75.91;97834.31;4932539;29;20090;-75
2022/04/10 04:51:53;;;;;;;23.02;10.98;;;;;;;7.89;76.00;97831.31;4941474;29;20487;-75
2022/04/10 04:54:38;;;;;;;20.42;10.48;;;;;;;7.92;75.89;97827.97;4942281;29;20657;-75
2022/04/10 04:57:24;;;;;;;23.57;10.90;;;;;;;7.93;75.95;97848.63;4930687;29;20058;-74
2022/04/10 05:00:12;;;;;;;22.42;11.20;;;;;;;7.94;75.92;97845.63;4932757;29;20138;-74
2022/04/10 05:03:04;;;;;;;27.58;12.10;;;;;;;7.91;75.95;97831.81;4902267;29;20066;-73
2022/04/10 05:05:49;;;;;;;23.60;11.68;;;;;;;7.94;76.13;97861.13;4928457;29;20130;-73
2022/04/10 05:08:42;;;;;;;24.70;12.27;;;;;;;7.91;76.26;97857.13;4916176;29;20084;-73
2022/04/10 05:11:30;;;;;;;26.58;12.38;;;;;;;7.89;76.39;97853.06;4918811;29;20142;-73
2022/04/10 05:14:14;;;;;;;23.73;12.15;;;;;;;7.92;76.47;97864.16;4919218;29;20156;-73
2022/04/10 05:17:00;;;;;;;32.55;13.68;;;;;;;7.91;76.35;97875.34;4937639;29;20054;-73
2022/04/10 05:19:44;;;;;;;22.15;12.48;;;;;;;7.95;76.36;97866.28;4926422;29;20536;-73
2022/04/10 05:22:29;;;;;;;26.45;12.40;;;;;;;7.93;76.41;97867.69;4920028;29;20130;-73
2022/04/10 05:25:19;;;;;;;26.02;12.23;;;;;;;7.94;76.46;97867.38;4918239;29;20150;-73
2022/04/10 05:28:07;;;;;;;26.33;13.32;;;;;;;7.93;76.73;97868.50;4932136;29;20139;-73
2022/04/10 05:30:52;;;;;;;25.13;12.43;;;;;;;7.94;76.72;97889.16;4932546;29;20087;-73
2022/04/10 05:33:43;;;;;;;22.85;11.73;;;;;;;7.93;76.68;97894.88;4931072;29;20070;-71
2022/04/10 05:36:28;;;;;;;30.58;12.55;;;;;;;7.93;76.82;97884.00;4920767;29;20075;-72
2022/04/10 05:39:14;;;;;;;31.52;12.90;;;;;;;7.93;76.66;97881.28;4933823;29;20059;-72
2022/04/10 05:41:59;;;;;;;26.42;13.68;;;;;;;8.01;76.62;97890.66;4929495;29;20139;-72
2022/04/10 05:44:44;;;;;;;32.25;15.25;;;;;;;7.97;76.79;97890.47;4932453;29;20114;-71
2022/04/10 05:47:30;;;;;;;26.88;13.10;;;;;;;8.02;76.82;97884.91;4918247;29;20062;-72
2022/04/10 05:50:16;;;;;;;31.75;14.77;;;;;;;8.05;76.65;97892.47;4927532;29;20054;-71
2022/04/10 05:53:02;;;;;;;30.08;13.85;;;;;;;7.99;76.77;97890.16;4924231;29;20219;-72
2022/04/10 05:55:48;;;;;;;;;;;;;;;8.06;76.86;97913.13;4919614;29;20067;-73
2022/04/10 05:58:38;;;;;;;26.90;13.23;;;;;;;8.01;76.91;97906.97;4930635;29;19933;-73
2022/04/10 06:01:24;;;;;;;35.40;15.52;;;;;;;8.07;76.86;97905.78;4941713;28;20113;-73
2022/04/10 06:04:10;;;;;;;28.65;14.13;;;;;;;8.07;77.02;97908.50;4921061;29;20055;-74
2022/04/10 06:06:56;;;;;;;27.92;15.45;;;;;;;8.09;76.90;97912.50;4936123;29;20054;-74
2022/04/10 06:09:50;;;;;;;41.53;16.08;;;;;;;8.14;77.01;97927.16;4930157;29;20058;-74
2022/04/10 06:12:35;;;;;;;31.70;15.75;;;;;;;8.06;77.43;97931.41;4916720;29;20115;-74
2022/04/10 06:15:21;;;;;;;37.22;15.48;;;;;;;8.04;77.50;97939.84;4925987;29;20075;-75
2022/04/10 06:17:52;;;;;;;38.40;16.75;;;;;;;8.02;77.93;97958.41;4930795;29;20575;-74
2022/04/10 06:20:18;;;;;;;32.87;17.37;;;;;;;8.01;77.79;97940.47;4930383;29;20152;-74
2022/04/10 06:22:45;;;;;;;32.60;16.35;;;;;;;8.06;77.94;97950.44;4916564;29;20125;-73
2022/04/10 06:25:14;;;;;;;35.38;16.15;;;;;;;8.03;77.92;97954.56;4900652;29;20138;-73
2022/04/10 06:27:40;;;;;;;36.28;16.33;;;;;;;8.08;78.04;97959.09;4932673;29;20067;-74
2022/04/10 06:30:08;;;;;;;35.70;17.10;;;;;;;7.97;78.46;97969.41;4916485;29;20520;-74
2022/04/10 06:32:40;;;;;;;37.60;17.08;;;;;;;7.95;78.71;97977.84;4942206;29;20539;-73
2022/04/10 06:35:08;;;;;;;37.30;17.77;;;;;;;8.02;78.64;97979.34;4910328;29;20063;-72
2022/04/10 06:37:36;;;;;;;42.97;18.13;;;;;;;7.88;79.21;97969.28;4916807;29;20062;-72
2022/04/10 06:40:03;;;;;;;36.80;18.48;;;;;;;7.95;79.07;97977.84;4930006;29;20067;-72
2022/04/10 06:42:30;;;;;;;42.72;19.10;;;;;;;7.93;79.27;97987.41;4927006;29;20076;-72
2022/04/10 06:45:16;;;;;;;44.83;18.80;;;;;;;8.02;78.84;97979.34;4929963;29;20217;-71
2022/04/10 06:48:06;;;;;;;40.13;18.75;;;;;;;8.14;78.34;97971.50;4930908;29;20060;-73
2022/04/10 06:50:51;;;;;;;44.00;18.38;;;;;;;8.21;78.18;97982.81;4917937;29;20052;-72
2022/04/10 06:53:24;;;;;;;38.22;19.00;;;;;;;8.22;78.27;97978.97;4939249;29;20432;-72
2022/04/10 06:55:52;;;;;;;44.70;19.30;;;;;;;8.37;77.71;97977.03;4920408;29;20055;-72
2022/04/10 06:58:19;;;;;;;40.13;18.73;;;;;;;8.42;77.52;97982.38;4915509;29;20483;-73
2022/04/10 07:00:47;;;;;;;41.78;18.83;;;;;;;8.53;77.25;97988.44;4928933;29;20059;-73
2022/04/10 07:03:14;;;;;;;36.78;16.20;;;;;;;8.65;76.73;97996.06;4925953;29;20131;-74
2022/04/10 07:05:41;;;;;;;32.08;15.40;;;;;;;8.65;76.33;97996.88;4928986;29;20161;-73
2022/04/10 07:08:15;;;;;;;35.97;14.50;;;;;;;8.73;76.18;98014.44;4929834;29;20432;-72
2022/04/10 07:10:41;;;;;;;41.53;18.48;;;;;;;8.73;76.10;98017.16;4927687;29;20056;-72
2022/04/10 07:13:08;;;;;;;44.78;17.92;;;;;;;8.78;75.70;98014.31;4929961;29;20074;-73
2022/04/10 07:15:35;;;;;;;49.72;21.92;;;;;;;8.82;75.93;98027.31;4917246;29;20059;-73
2022/04/10 07:18:02;;;;;;;43.47;20.45;;;;;;;8.90;75.57;98029.31;4916024;29;20543;-73
2022/04/10 07:20:29;;;;;;;39.78;18.17;;;;;;;8.87;75.68;98029.94;4929929;29;20547;-72
2022/04/10 07:25:43;;;;;;;39.97;13.98;;;;;;;9.03;74.85;98044.00;4936129;29;20091;-73
2022/04/10 07:28:11;;;;;;;28.42;12.57;;;;;;;9.01;74.67;98047.06;4932155;29;20056;-74
2022/04/10 07:30:50;;;;;;;29.98;12.48;;;;;;;8.98;74.55;98055.88;4911708;29;20211;-74
2022/04/10 07:33:18;;;;;;;41.80;16.60;;;;;;;8.97;74.26;98059.69;4929735;29;20139;-75
2022/04/10 07:35:51;;;;;;;48.50;17.23;;;;;;;8.93;73.72;98045.88;4911665;29;20054;-74
2022/04/10 07:38:22;;;;;;;18.27;8.23;;;;;;;8.82;73.63;98066.28;4913987;29;20056;-74
2022/04/10 07:40:48;;;;;;;18.17;7.18;;;;;;;8.76;72.85;98083.88;4932081;29;20192;-74
2022/04/10 07:43:23;;;;;;;15.68;5.38;;;;;;;8.77;72.43;98075.38;4943217;29;20155;-75
2022/04/10 07:48:44;;;;;;;10.95;3.17;;;;;;;8.75;71.23;98110.28;4928521;29;20082;-75
2022/04/10 07:51:12;;;;;;;8.98;2.85;;;;;;;8.81;70.47;98113.72;4914815;29;20060;-76
2022/04/10 07:53:49;;;;;;;11.77;3.67;;;;;;;8.77;69.79;98113.53;4912276;29;20091;-75
2022/04/10 07:56:15;;;;;;;26.20;9.80;;;;;;;8.74;69.57;98127.75;4931674;29;20064;-75
2022/04/10 07:58:42;;;;;;;22.83;7.82;;;;;;;8.71;69.46;98135.72;4929806;29;20043;-74
2022/04/10 08:01:23;;;;;;;16.95;5.20;;;;;;;8.64;69.38;98130.69;4915862;29;20067;-74
2022/04/10 08:03:51;;;;;;;11.45;4.20;;;;;;;8.62;69.38;98139.16;4916893;29;20051;-74
2022/04/10 08:06:39;;;;;;;12.20;3.40;;;;;;;8.59;68.78;98128.06;4930923;29;20056;-74
2022/04/10 08:09:06;;;;;;;12.00;4.32;;;;;;;8.66;68.67;98161.16;4937352;29;20070;-74
2022/04/10 08:11:32;;;;;;;11.55;3.38;;;;;;;8.71;68.63;98162.97;4930014;29;20145;-74
2022/04/10 08:13:59;;;;;;;9.32;3.67;;;;;;;8.71;68.22;98165.69;4942872;29;20206;-74
2022/04/10 08:16:25;;;;;;;131.82;34.35;;;;;;;8.65;68.14;98163.09;4934454;29;20056;-74
2022/04/10 08:18:52;;;;;;;65.03;20.35;;;;;;;8.74;67.89;98170.53;4932051;29;20054;-74
2022/04/10 08:21:18;;;;;;;;;;;;;;;8.84;67.56;98166.84;4932120;29;20571;-74
2022/04/10 08:23:45;;;;;;;27.23;8.20;;;;;;;8.88;67.22;98178.72;4928193;29;19954;-74
2022/04/10 08:26:10;;;;;;;21.10;5.90;;;;;;;8.88;66.88;98170.56;4930746;29;20075;-74
2022/04/10 08:28:37;;;;;;;15.52;4.72;;;;;;;8.87;66.88;98183.34;4932476;29;20438;-73
2022/04/10 08:31:03;;;;;;;23.85;3.78;;;;;;;8.86;66.81;98184.47;4928460;29;20653;-73
2022/04/10 08:33:30;;;;;;;12.90;3.90;;;;;;;8.90;66.46;98190.97;4934462;29;20154;-73
2022/04/10 08:35:56;;;;;;;20.80;3.65;;;;;;;8.90;66.47;98198.31;4929665;29;20087;-73
2022/04/10 08:38:23;;;;;;;8.98;3.03;;;;;;;8.92;66.34;98199.63;4932484;29;20091;-74
2022/04/10 08:40:53;;;;;;;12.27;3.00;;;;;;;8.92;66.06;98213.25;4933049;29;20068;-74
2022/04/10 08:43:19;;;;;;;11.98;3.47;;;;;;;9.00;65.67;98219.94;4931020;29;20080;-74
2022/04/10 08:45:46;;;;;;;11.80;4.32;;;;;;;9.12;65.47;98230.31;4930830;29;20473;-74
2022/04/10 08:48:14;;;;;;;15.25;4.18;;;;;;;9.16;64.89;98228.59;4933402;29;20528;-74
2022/04/10 08:50:39;;;;;;;;;;;;;;;9.10;64.66;98221.63;4932818;29;20169;-74
2022/04/10 08:53:07;;;;;;;11.77;3.90;;;;;;;8.99;64.49;98248.31;4932927;29;20447;-74
2022/04/10 08:55:33;;;;;;;14.48;3.40;;;;;;;8.98;64.24;98251.31;4902324;29;20543;-74
2022/04/10 08:58:02;;;;;;;11.20;4.28;;;;;;;8.98;64.61;98249.41;4933099;29;20150;-74
2022/04/10 09:00:28;;;;;;;12.75;3.85;;;;;;;9.04;64.01;98241.91;4932132;29;20099;-74
2022/04/10 09:02:54;;;;;;;10.82;3.55;;;;;;;9.14;63.71;98257.28;4931406;29;20063;-74
2022/04/10 09:05:23;;;;;;;14.80;4.20;;;;;;;9.05;63.83;98260.72;4933736;29;20051;-74
2022/04/10 09:08:13;;;;;;;11.85;4.03;;;;;;;9.02;64.01;98266.78;4931614;29;20068;-74
2022/04/10 09:11:00;;;;;;;13.73;4.13;;;;;;;8.95;64.09;98263.63;4922472;29;20071;-74
2022/04/10 09:13:31;;;;;;;67.63;22.25;;;;;;;9.01;64.03;98273.34;4917703;29;20060;-73
2022/04/10 09:16:11;;;;;;;38.78;13.13;;;;;;;9.05;63.91;98279.78;4934498;29;20052;-73
2022/04/10 09:18:54;;;;;;;32.63;8.18;;;;;;;9.02;63.67;98287.75;4934009;29;20106;-73
2022/04/10 09:21:23;;;;;;;18.90;6.68;;;;;;;8.83;63.61;98266.84;4930566;29;20444;-74
2022/04/10 09:23:57;;;;;;;14.48;4.55;;;;;;;8.87;63.44;98273.31;4934844;29;20083;-73
2022/04/10 09:26:24;;;;;;;16.27;5.05;;;;;;;8.97;63.23;98274.25;4899448;29;20052;-73
2022/04/10 09:28:51;;;;;;;16.75;5.03;;;;;;;8.99;63.31;98278.28;4932596;29;20063;-78
2022/04/10 09:31:25;;;;;;;10.20;4.60;;;;;;;8.99;63.09;98288.38;4931145;29;20451;-72
2022/04/10 09:33:55;;;;;;;13.48;4.18;;;;;;;8.99;63.10;98299.28;4932899;29;20056;-73
2022/04/10 09:36:29;;;;;;;12.32;4.15;;;;;;;8.98;62.89;98303.13;4924826;29;20059;-73
2022/04/10 09:38:55;;;;;;;12.40;4.82;;;;;;;9.04;63.06;98304.63;4914619;29;20079;-73
2022/04/10 09:41:21;;;;;;;17.67;5.50;;;;;;;9.24;62.33;98308.09;4934598;29;20067;-72
2022/04/10 09:43:48;;;;;;;15.25;4.97;;;;;;;9.15;62.11;98311.50;4917239;29;20077;-73
2022/04/10 09:46:14;;;;;;;15.02;5.47;;;;;;;9.22;62.10;98335.66;4933196;29;20056;-73
2022/04/10 09:48:40;;;;;;;16.80;5.78;;;;;;;9.24;61.92;98341.63;4926451;29;20059;-74
2022/04/10 09:51:06;;;;;;;18.10;5.53;;;;;;;9.26;62.01;98344.06;4925940;29;20114;-72
2022/04/10 09:53:34;;;;;;;14.40;4.55;;;;;;;9.29;61.94;98346.16;4933174;29;20059;-73
2022/04/10 09:56:04;;;;;;;14.00;5.20;;;;;;;9.31;61.71;98347.50;4941443;28;20063;-72
2022/04/10 09:58:32;;;;;;;12.57;5.82;;;;;;;9.34;61.62;98346.88;4930050;29;20043;-72
2022/04/10 10:01:00;;;;;;;29.30;6.20;;;;;;;9.38;61.04;98344.38;4933430;29;20101;-73
2022/04/10 10:03:28;;;;;;;12.60;4.97;;;;;;;9.36;60.85;98352.03;4936655;29;20509;-73
2022/04/10 10:05:54;;;;;;;;;;;;;;;9.40;60.62;98357.69;4930605;29;20051;-73
2022/04/10 10:08:22;;;;;;;11.82;4.57;;;;;;;9.43;60.66;98368.00;4925288;29;19970;-72
2022/04/10 10:10:49;;;;;;;15.80;5.15;;;;;;;9.43;60.32;98362.53;4933169;29;20056;-72
2022/04/10 10:13:16;;;;;;;15.45;4.43;;;;;;;9.46;60.29;98361.97;4933041;29;20083;-73
2022/04/10 10:15:43;;;;;;;11.95;4.75;;;;;;;9.52;59.80;98371.66;4925941;29;20056;-73
2022/04/10 10:18:11;;;;;;;17.58;6.57;;;;;;;9.50;59.50;98362.97;4930981;29;20110;-73
2022/04/10 10:20:38;;;;;;;17.27;6.82;;;;;;;9.58;59.59;98375.09;4932273;29;20473;-73
2022/04/10 10:23:08;;;;;;;;;;;;;;;9.68;59.21;98374.91;4917257;29;20059;-72
2022/04/10 10:25:40;;;;;;;17.65;6.03;;;;;;;9.74;59.35;98370.13;4932743;29;19927;-73
2022/04/10 10:28:36;;;;;;;25.02;5.88;;;;;;;9.74;58.96;98387.31;4932199;29;20056;-73
2022/04/10 10:31:29;;;;;;;20.00;6.00;;;;;;;9.73;59.05;98388.44;4932434;29;20063;-72
2022/04/10 10:33:58;;;;;;;13.70;5.15;;;;;;;9.76;59.10;98390.56;4930523;29;20067;-71
2022/04/10 10:36:26;;;;;;;14.23;5.68;;;;;;;9.82;58.81;98395.91;4932940;29;20055;-72
2022/04/10 10:38:54;;;;;;;14.88;5.85;;;;;;;9.81;58.76;98405.19;4932149;29;20500;-72
2022/04/10 10:41:34;;;;;;;14.35;5.40;;;;;;;9.84;58.43;98405.41;4936131;29;20055;-72
2022/04/10 10:44:43;;;;;;;14.43;5.40;;;;;;;9.81;58.26;98414.22;4932736;29;20485;-72
2022/04/10 10:47:18;;;;;;;14.00;4.90;;;;;;;9.90;57.98;98422.50;4926000;29;20048;-72
2022/04/10 10:49:45;;;;;;;14.60;6.07;;;;;;;9.82;57.88;98436.84;4933320;29;20538;-72
2022/04/10 10:52:13;;;;;;;15.23;5.90;;;;;;;9.87;57.72;98426.63;4932179;29;20083;-72
2022/04/10 10:54:44;;;;;;;14.80;5.32;;;;;;;9.86;57.45;98435.94;4933528;29;20516;-73
2022/04/10 10:57:37;;;;;;;18.23;5.53;;;;;;;9.80;57.11;98442.63;4933124;29;20048;-74
2022/04/10 11:00:22;;;;;;;10.02;4.93;;;;;;;9.72;57.06;98432.41;4922432;29;20059;-73
2022/04/10 11:02:50;;;;;;;11.85;4.80;;;;;;;9.69;56.73;98436.56;4932109;29;20055;-74
2022/04/10 11:05:31;;;;;;;14.68;4.93;;;;;;;9.73;56.56;98448.47;4933590;29;20488;-73
2022/04/10 11:07:58;;;;;;;12.90;5.40;;;;;;;9.75;56.56;98454.44;4930681;29;20056;-73
2022/04/10 11:10:28;;;;;;;14.38;5.63;;;;;;;9.74;56.36;98447.38;4933674;29;20059;-72
2022/04/10 11:12:59;;;;;;;12.52;5.03;;;;;;;9.77;56.30;98456.88;4933452;29;20155;-73
2022/04/10 11:15:30;;;;;;;13.23;5.43;;;;;;;9.75;55.69;98450.88;4931930;29;20146;-72
2022/04/10 11:18:16;;;;;;;15.82;5.53;;;;;;;9.79;55.66;98447.25;4933595;29;20067;-73
2022/04/10 11:20:53;;;;;;;15.80;7.05;;;;;;;9.73;55.46;98448.47;4927109;29;20107;-73
2022/04/10 11:23:20;;;;;;;13.02;5.35;;;;;;;9.77;55.45;98451.41;4930261;29;20150;-72
2022/04/10 11:25:51;;;;;;;16.23;6.00;;;;;;;9.84;55.31;98453.75;4911164;29;20047;-72
2022/04/10 11:28:18;;;;;;;21.05;5.35;;;;;;;9.87;55.04;98456.66;4932410;29;20058;-73
2022/04/10 11:30:46;;;;;;;17.05;5.60;;;;;;;9.83;55.12;98458.38;4931462;29;20059;-73
2022/04/10 11:33:12;;;;;;;;;;;;;;;9.85;54.84;98458.09;4933676;29;20056;-73
2022/04/10 11:35:40;;;;;;;18.70;5.60;;;;;;;9.82;54.82;98448.59;4916386;29;20387;-73
2022/04/10 11:38:08;;;;;;;16.05;5.90;;;;;;;9.81;54.61;98460.63;4929676;29;20552;-72
2022/04/10 11:40:38;;;;;;;13.32;5.85;;;;;;;9.78;54.61;98462.03;4930614;29;20107;-73
2022/04/10 11:43:08;;;;;;;15.30;6.10;;;;;;;9.84;54.35;98461.94;4915890;29;20481;-72
2022/04/10 11:45:35;;;;;;;15.88;6.20;;;;;;;9.86;54.34;98454.25;4933057;29;20115;-72
2022/04/10 11:48:05;;;;;;;15.43;6.03;;;;;;;9.89;54.39;98456.38;4929038;29;20063;-73
2022/04/10 11:50:32;;;;;;;15.60;5.57;;;;;;;9.84;54.52;98459.22;4918049;29;20125;-73
2022/04/10 11:53:03;;;;;;;15.38;6.22;;;;;;;9.88;54.26;98461.00;4914972;29;20047;-73
2022/04/10 11:55:33;;;;;;;19.73;6.63;;;;;;;9.84;54.55;98460.00;4933160;29;20146;-73
2022/04/10 11:58:00;;;;;;;25.48;7.95;;;;;;;9.82;54.55;98459.50;4932625;29;20139;-74
2022/04/10 12:00:27;;;;;;;16.38;7.38;;;;;;;9.83;54.42;98465.75;4936001;29;20056;-73
2022/04/10 12:02:54;;;;;;;17.27;6.72;;;;;;;9.85;54.24;98469.81;4935928;29;20052;-73
2022/04/10 12:05:21;;;;;;;23.42;7.57;;;;;;;9.85;54.18;98483.47;4935343;29;20107;-73
2022/04/10 12:07:47;;;;;;;21.30;8.05;;;;;;;9.85;54.18;98494.38;4923370;29;20062;-73
2022/04/10 12:10:18;;;;;;;19.38;6.28;;;;;;;9.81;54.07;98490.66;4932302;29;20118;-73